createdAt,value
2018-08-10T00:00:03.268Z,84.14
2018-08-10T00:01:03.230Z,83.66
2018-08-10T00:02:03.239Z,84.14
2018-08-10T00:03:03.253Z,83.75
2018-08-10T00:04:03.241Z,84.43
2018-08-10T00:05:03.245Z,84.14
2018-08-10T00:06:03.246Z,84.05
2018-08-10T00:07:03.256Z,84.05
2018-08-10T00:08:03.255Z,83.95
2018-08-10T00:09:03.266Z,84.23
2018-08-10T00:10:03.272Z,84.43
2018-08-10T00:11:03.266Z,84.05
2018-08-10T00:12:03.271Z,84.72
2018-08-10T00:13:03.277Z,84.33
2018-08-10T00:14:03.277Z,84.43
2018-08-10T00:15:03.282Z,83.95
2018-08-10T00:16:03.286Z,84.14
2018-08-10T00:17:03.291Z,84.62
2018-08-10T00:18:03.295Z,84.14
2018-08-10T00:19:03.298Z,84.14
2018-08-10T00:20:03.301Z,83.75
2018-08-10T00:21:03.306Z,84.81
2018-08-10T00:22:03.310Z,84.23
2018-08-10T00:23:03.312Z,84.23
2018-08-10T00:24:03.318Z,84.14
2018-08-10T00:25:03.323Z,84.14
2018-08-10T00:26:03.324Z,84.19
2018-08-10T00:27:03.330Z,84.97
2018-08-10T00:28:03.333Z,85.20
2018-08-10T00:29:03.337Z,85.16
2018-08-10T00:30:03.368Z,85.25
2018-08-10T00:31:03.344Z,86.12
2018-08-10T00:32:03.350Z,85.74
2018-08-10T00:33:03.356Z,85.93
2018-08-10T00:34:03.364Z,86.31
2018-08-10T00:35:03.361Z,86.51
2018-08-10T00:36:03.364Z,86.69
2018-08-10T00:37:03.368Z,86.69
2018-08-10T00:38:03.377Z,86.69
2018-08-10T00:39:03.376Z,87.46
2018-08-10T00:40:03.380Z,87.18
2018-08-10T00:41:03.389Z,86.99
2018-08-10T00:42:03.392Z,87.85
2018-08-10T00:43:03.393Z,87.95
2018-08-10T00:44:03.397Z,87.95
2018-08-10T00:45:03.401Z,87.76
2018-08-10T00:46:03.403Z,87.95
2018-08-10T00:47:03.405Z,87.71
2018-08-10T00:48:03.411Z,88.14
2018-08-10T00:49:03.418Z,87.37
2018-08-10T00:50:03.418Z,87.08
2018-08-10T00:51:03.423Z,87.23
2018-08-10T00:52:03.425Z,87.23
2018-08-10T00:53:03.429Z,86.94
2018-08-10T00:54:03.434Z,87.23
2018-08-10T00:55:03.471Z,86.56
2018-08-10T00:56:03.440Z,85.98
2018-08-10T00:57:03.445Z,85.69
2018-08-10T00:58:03.446Z,85.50
2018-08-10T00:59:03.453Z,85.98
2018-08-10T01:00:03.457Z,85.50
2018-08-10T01:01:03.462Z,85.21
2018-08-10T01:02:03.462Z,84.44
2018-08-10T01:03:03.467Z,84.73
2018-08-10T01:04:03.470Z,84.34
2018-08-10T01:05:03.473Z,84.16
2018-08-10T01:06:03.477Z,83.48
2018-08-10T01:07:03.481Z,83.96
2018-08-10T01:08:03.494Z,83.77
2018-08-10T01:09:03.488Z,83.58
2018-08-10T01:10:03.495Z,83.96
2018-08-10T01:11:03.496Z,83.58
2018-08-10T01:12:03.500Z,83.39
2018-08-10T01:13:03.504Z,83.48
2018-08-10T01:14:03.514Z,83.77
2018-08-10T01:15:03.513Z,83.09
2018-08-10T01:16:03.512Z,83.58
2018-08-10T01:17:03.517Z,83.39
2018-08-10T01:18:03.519Z,82.90
2018-08-10T01:19:03.572Z,83.48
2018-08-10T01:20:03.529Z,83.00
2018-08-10T01:21:03.534Z,82.90
2018-08-10T01:22:03.535Z,83.00
2018-08-10T01:23:03.540Z,83.00
2018-08-10T01:24:03.543Z,83.19
2018-08-10T01:25:03.551Z,82.90
2018-08-10T01:26:03.548Z,83.09
2018-08-10T01:27:03.553Z,83.19
2018-08-10T01:28:03.557Z,82.61
2018-08-10T01:29:03.602Z,82.52
2018-08-10T01:30:03.564Z,82.61
2018-08-10T01:31:03.568Z,82.23
2018-08-10T01:32:03.570Z,82.61
2018-08-10T01:33:03.574Z,82.52
2018-08-10T01:34:03.580Z,82.71
2018-08-10T01:35:03.581Z,82.61
2018-08-10T01:36:03.586Z,82.81
2018-08-10T01:37:03.590Z,82.81
2018-08-10T01:38:03.592Z,82.23
2018-08-10T01:39:03.593Z,82.32
2018-08-10T01:40:03.598Z,81.90
2018-08-10T01:41:03.609Z,82.23
2018-08-10T01:42:03.606Z,81.75
2018-08-10T01:43:03.608Z,82.14
2018-08-10T01:44:03.611Z,82.04
2018-08-10T01:45:03.623Z,81.99
2018-08-10T01:46:03.622Z,82.09
2018-08-10T01:47:03.630Z,81.81
2018-08-10T01:48:03.627Z,82.57
2018-08-10T01:49:03.629Z,82.29
2018-08-10T01:50:03.633Z,82.38
2018-08-10T01:51:03.640Z,82.86
2018-08-10T01:52:03.641Z,82.76
2018-08-10T01:53:03.643Z,82.38
2018-08-10T01:54:03.650Z,82.67
2018-08-10T01:55:03.652Z,82.57
2018-08-10T01:56:03.654Z,82.67
2018-08-10T01:57:03.658Z,83.15
2018-08-10T01:58:03.658Z,83.15
2018-08-10T01:59:03.664Z,82.86
2018-08-10T02:00:03.667Z,84.01
2018-08-10T02:01:03.678Z,83.83
2018-08-10T02:02:03.674Z,82.76
2018-08-10T02:03:03.686Z,83.44
2018-08-10T02:04:03.681Z,82.96
2018-08-10T02:05:03.689Z,82.96
2018-08-10T02:06:03.688Z,82.76
2018-08-10T02:07:03.692Z,83.92
2018-08-10T02:08:03.694Z,82.29
2018-08-10T02:09:03.698Z,82.38
2018-08-10T02:10:03.700Z,82.48
2018-08-10T02:11:03.706Z,81.23
2018-08-10T02:12:03.708Z,81.32
2018-08-10T02:13:03.712Z,81.13
2018-08-10T02:14:03.715Z,81.13
2018-08-10T02:15:03.721Z,81.61
2018-08-10T02:16:03.720Z,81.81
2018-08-10T02:17:03.728Z,82.19
2018-08-10T02:18:03.727Z,82.29
2018-08-10T02:19:03.731Z,82.76
2018-08-10T02:20:03.744Z,82.38
2018-08-10T02:21:03.737Z,82.76
2018-08-10T02:22:03.744Z,82.29
2018-08-10T02:23:03.747Z,82.57
2018-08-10T02:24:03.747Z,81.99
2018-08-10T02:25:03.753Z,82.05
2018-08-10T02:26:03.758Z,81.90
2018-08-10T02:27:03.758Z,82.29
2018-08-10T02:28:03.763Z,81.96
2018-08-10T02:29:03.765Z,81.96
2018-08-10T02:30:03.767Z,81.86
2018-08-10T02:31:03.774Z,81.48
2018-08-10T02:32:03.776Z,81.28
2018-08-10T02:33:03.779Z,81.76
2018-08-10T02:34:03.782Z,81.28
2018-08-10T02:35:03.781Z,81.67
2018-08-10T02:36:03.787Z,81.67
2018-08-10T02:37:03.792Z,81.67
2018-08-10T02:38:03.794Z,81.38
2018-08-10T02:39:03.797Z,80.99
2018-08-10T02:40:03.801Z,81.67
2018-08-10T02:41:03.803Z,81.48
2018-08-10T02:42:03.817Z,81.48
2018-08-10T02:43:03.815Z,81.67
2018-08-10T02:44:03.813Z,81.48
2018-08-10T02:45:03.817Z,81.48
2018-08-10T02:46:03.819Z,82.05
2018-08-10T02:47:03.822Z,82.05
2018-08-10T02:48:03.828Z,82.05
2018-08-10T02:49:03.829Z,81.96
2018-08-10T02:50:03.833Z,81.86
2018-08-10T02:51:03.835Z,81.57
2018-08-10T02:52:03.838Z,81.67
2018-08-10T02:53:03.841Z,81.86
2018-08-10T02:54:03.845Z,81.86
2018-08-10T02:55:03.848Z,82.01
2018-08-10T02:56:03.853Z,81.43
2018-08-10T02:57:03.856Z,81.38
2018-08-10T02:58:03.857Z,81.57
2018-08-10T02:59:03.859Z,81.43
2018-08-10T03:00:03.863Z,81.05
2018-08-10T03:01:03.866Z,80.66
2018-08-10T03:02:03.871Z,80.57
2018-08-10T03:03:03.873Z,80.66
2018-08-10T03:04:03.877Z,80.47
2018-08-10T03:05:03.879Z,80.38
2018-08-10T03:06:03.882Z,80.38
2018-08-10T03:07:03.885Z,80.38
2018-08-10T03:08:03.888Z,80.47
2018-08-10T03:09:03.889Z,80.86
2018-08-10T03:10:03.894Z,80.86
2018-08-10T03:11:03.898Z,80.47
2018-08-10T03:12:03.898Z,80.57
2018-08-10T03:13:03.904Z,80.76
2018-08-10T03:14:03.943Z,80.57
2018-08-10T03:15:03.909Z,81.34
2018-08-10T03:16:03.917Z,81.24
2018-08-10T03:17:03.916Z,81.15
2018-08-10T03:18:03.937Z,81.24
2018-08-10T03:19:03.919Z,81.43
2018-08-10T03:20:03.927Z,80.76
2018-08-10T03:21:03.927Z,80.66
2018-08-10T03:22:03.955Z,79.52
2018-08-10T03:23:03.935Z,79.22
2018-08-10T03:24:03.937Z,79.61
2018-08-10T03:25:03.938Z,78.75
2018-08-10T03:26:03.956Z,79.22
2018-08-10T03:27:03.943Z,79.19
2018-08-10T03:28:03.945Z,79.71
2018-08-10T03:29:03.951Z,79.03
2018-08-10T03:30:03.958Z,78.90
2018-08-10T03:31:03.970Z,78.80
2018-08-10T03:32:03.957Z,79.03
2018-08-10T03:33:03.959Z,79.38
2018-08-10T03:34:03.965Z,79.38
2018-08-10T03:35:03.965Z,79.38
2018-08-10T03:36:03.974Z,79.52
2018-08-10T03:37:03.973Z,79.76
2018-08-10T03:38:03.974Z,79.96
2018-08-10T03:39:03.977Z,79.57
2018-08-10T03:40:03.979Z,78.90
2018-08-10T03:41:03.986Z,79.47
2018-08-10T03:42:03.984Z,79.76
2018-08-10T03:43:03.988Z,79.96
2018-08-10T03:44:03.990Z,79.28
2018-08-10T03:45:03.994Z,80.15
2018-08-10T03:46:03.994Z,79.86
2018-08-10T03:47:04.000Z,79.09
2018-08-10T03:48:04.003Z,78.80
2018-08-10T03:49:04.005Z,78.99
2018-08-10T03:50:04.007Z,79.19
2018-08-10T03:51:04.008Z,78.23
2018-08-10T03:52:04.012Z,78.42
2018-08-10T03:53:04.013Z,78.52
2018-08-10T03:54:04.046Z,78.90
2018-08-10T03:55:04.021Z,79.09
2018-08-10T03:56:04.023Z,78.99
2018-08-10T03:57:04.026Z,79.09
2018-08-10T03:58:04.028Z,79.28
2018-08-10T03:59:04.056Z,79.76
2018-08-10T04:00:04.038Z,79.86
2018-08-10T04:01:04.036Z,79.67
2018-08-10T04:02:04.044Z,79.86
2018-08-10T04:03:04.043Z,79.19
2018-08-10T04:04:04.046Z,79.38
2018-08-10T04:05:04.050Z,79.86
2018-08-10T04:06:04.051Z,79.86
2018-08-10T04:07:04.055Z,80.05
2018-08-10T04:08:04.060Z,79.86
2018-08-10T04:09:04.063Z,79.76
2018-08-10T04:10:04.063Z,80.15
2018-08-10T04:11:04.068Z,79.67
2018-08-10T04:12:04.069Z,80.11
2018-08-10T04:13:04.099Z,80.05
2018-08-10T04:14:04.077Z,80.87
2018-08-10T04:15:04.078Z,80.34
2018-08-10T04:16:04.079Z,80.68
2018-08-10T04:17:04.083Z,80.73
2018-08-10T04:18:04.086Z,81.30
2018-08-10T04:19:04.092Z,80.68
2018-08-10T04:20:04.090Z,81.40
2018-08-10T04:21:04.093Z,81.20
2018-08-10T04:22:04.096Z,81.10
2018-08-10T04:23:04.100Z,81.20
2018-08-10T04:24:04.102Z,81.26
2018-08-10T04:25:04.108Z,81.20
2018-08-10T04:26:04.106Z,81.97
2018-08-10T04:27:04.114Z,81.87
2018-08-10T04:28:04.113Z,81.54
2018-08-10T04:29:04.117Z,81.93
2018-08-10T04:30:04.118Z,81.97
2018-08-10T04:31:04.120Z,81.10
2018-08-10T04:32:04.124Z,81.20
2018-08-10T04:33:04.128Z,81.16
2018-08-10T04:34:04.130Z,80.73
2018-08-10T04:35:04.132Z,81.16
2018-08-10T04:36:04.134Z,81.20
2018-08-10T04:37:04.137Z,81.30
2018-08-10T04:38:04.139Z,81.01
2018-08-10T04:39:04.141Z,81.59
2018-08-10T04:40:04.143Z,81.59
2018-08-10T04:41:04.148Z,81.35
2018-08-10T04:42:04.156Z,81.97
2018-08-10T04:43:04.154Z,82.21
2018-08-10T04:44:04.154Z,82.21
2018-08-10T04:45:04.159Z,82.70
2018-08-10T04:46:04.175Z,81.84
2018-08-10T04:47:04.177Z,82.21
2018-08-10T04:48:04.201Z,82.41
2018-08-10T04:49:04.168Z,82.21
2018-08-10T04:50:04.172Z,82.03
2018-08-10T04:51:04.173Z,82.21
2018-08-10T04:52:04.177Z,82.03
2018-08-10T04:53:04.179Z,82.89
2018-08-10T04:54:04.182Z,82.70
2018-08-10T04:55:04.231Z,83.18
2018-08-10T04:56:04.188Z,82.70
2018-08-10T04:57:04.189Z,83.65
2018-08-10T04:58:04.194Z,83.37
2018-08-10T04:59:04.195Z,83.08
2018-08-10T05:00:04.198Z,83.56
2018-08-10T05:01:04.201Z,83.56
2018-08-10T05:02:04.202Z,83.47
2018-08-10T05:03:04.206Z,83.85
2018-08-10T05:04:04.208Z,84.42
2018-08-10T05:05:04.210Z,83.85
2018-08-10T05:06:04.215Z,83.94
2018-08-10T05:07:04.223Z,83.85
2018-08-10T05:08:04.219Z,83.85
2018-08-10T05:09:04.222Z,83.65
2018-08-10T05:10:04.222Z,83.85
2018-08-10T05:11:04.225Z,83.47
2018-08-10T05:12:04.227Z,83.75
2018-08-10T05:13:04.230Z,84.14
2018-08-10T05:14:04.230Z,83.94
2018-08-10T05:15:04.234Z,83.27
2018-08-10T05:16:04.236Z,83.56
2018-08-10T05:17:04.245Z,83.56
2018-08-10T05:18:04.241Z,83.47
2018-08-10T05:19:04.245Z,83.75
2018-08-10T05:20:04.247Z,83.47
2018-08-10T05:21:04.249Z,83.56
2018-08-10T05:22:04.251Z,83.56
2018-08-10T05:23:04.255Z,82.51
2018-08-10T05:24:04.259Z,83.37
2018-08-10T05:25:04.263Z,82.21
2018-08-10T05:26:04.262Z,81.93
2018-08-10T05:27:04.263Z,81.45
2018-08-10T05:28:04.271Z,81.84
2018-08-10T05:29:04.269Z,81.35
2018-08-10T05:30:04.272Z,81.16
2018-08-10T05:31:04.292Z,80.49
2018-08-10T05:32:04.276Z,80.40
2018-08-10T05:33:04.278Z,80.20
2018-08-10T05:34:04.280Z,80.01
2018-08-10T05:35:04.282Z,80.30
2018-08-10T05:36:04.284Z,80.11
2018-08-10T05:37:04.290Z,79.76
2018-08-10T05:38:04.294Z,79.57
2018-08-10T05:39:04.294Z,79.19
2018-08-10T05:40:04.296Z,79.14
2018-08-10T05:41:04.299Z,79.76
2018-08-10T05:42:04.305Z,79.28
2018-08-10T05:43:04.304Z,78.80
2018-08-10T05:44:04.360Z,78.70
2018-08-10T05:45:04.310Z,79.19
2018-08-10T05:46:04.312Z,78.99
2018-08-10T05:47:04.369Z,78.90
2018-08-10T05:48:04.376Z,78.23
2018-08-10T05:49:04.322Z,77.75
2018-08-10T05:50:04.343Z,78.27
2018-08-10T05:51:04.423Z,77.11
2018-08-10T05:52:04.328Z,76.25
2018-08-10T05:53:04.332Z,75.87
2018-08-10T05:54:04.336Z,75.20
2018-08-10T05:55:04.338Z,74.75
2018-08-10T05:56:04.339Z,74.37
2018-08-10T05:57:04.344Z,73.69
2018-08-10T05:58:04.347Z,73.60
2018-08-10T05:59:04.350Z,72.73
2018-08-10T06:00:04.352Z,72.92
2018-08-10T06:01:04.359Z,72.54
2018-08-10T06:02:04.359Z,72.06
2018-08-10T06:03:04.362Z,72.06
2018-08-10T06:04:04.559Z,72.02
2018-08-10T06:05:04.389Z,71.93
2018-08-10T06:06:04.372Z,72.60
2018-08-10T06:07:04.378Z,73.37
2018-08-10T06:08:04.381Z,72.99
2018-08-10T06:09:04.390Z,72.60
2018-08-10T06:10:04.388Z,72.75
2018-08-10T06:11:04.385Z,72.60
2018-08-10T06:12:04.392Z,72.02
2018-08-10T06:13:04.419Z,72.12
2018-08-10T06:14:04.399Z,71.93
2018-08-10T06:15:04.401Z,71.83
2018-08-10T06:16:04.406Z,71.45
2018-08-10T06:17:04.409Z,70.58
2018-08-10T06:18:04.411Z,70.49
2018-08-10T06:19:04.418Z,70.33
2018-08-10T06:20:04.420Z,69.75
2018-08-10T06:21:04.421Z,69.85
2018-08-10T06:22:04.428Z,70.29
2018-08-10T06:23:04.433Z,70.33
2018-08-10T06:24:04.435Z,69.62
2018-08-10T06:25:04.499Z,69.66
2018-08-10T06:26:04.439Z,69.75
2018-08-10T06:27:04.443Z,70.04
2018-08-10T06:28:04.478Z,69.56
2018-08-10T06:29:04.451Z,69.37
2018-08-10T06:30:04.453Z,68.73
2018-08-10T06:31:04.459Z,67.48
2018-08-10T06:32:04.461Z,66.91
2018-08-10T06:33:04.466Z,66.17
2018-08-10T06:34:04.532Z,65.59
2018-08-10T06:35:04.473Z,67.10
2018-08-10T06:36:04.479Z,67.35
2018-08-10T06:37:04.480Z,67.93
2018-08-10T06:38:04.485Z,67.64
2018-08-10T06:39:04.489Z,68.51
2018-08-10T06:40:04.492Z,68.89
2018-08-10T06:41:04.497Z,68.66
2018-08-10T06:42:04.544Z,69.34
2018-08-10T06:43:04.505Z,69.05
2018-08-10T06:44:04.508Z,70.01
2018-08-10T06:45:04.730Z,69.97
2018-08-10T06:46:04.518Z,69.78
2018-08-10T06:47:04.520Z,69.91
2018-08-10T06:48:04.527Z,69.81
2018-08-10T06:49:04.528Z,68.41
2018-08-10T06:50:04.536Z,67.29
2018-08-10T06:51:04.582Z,66.61
2018-08-10T06:52:04.544Z,67.29
2018-08-10T06:53:04.544Z,67.07
2018-08-10T06:54:04.551Z,67.16
2018-08-10T06:55:04.553Z,68.08
2018-08-10T06:56:04.613Z,68.28
2018-08-10T06:57:04.611Z,69.14
2018-08-10T06:58:04.562Z,68.85
2018-08-10T06:59:04.567Z,68.47
2018-08-10T07:00:04.572Z,69.14
2018-08-10T07:01:04.639Z,68.85
2018-08-10T07:02:04.578Z,67.19
2018-08-10T07:03:04.582Z,66.17
2018-08-10T07:04:04.586Z,64.63
2018-08-10T07:05:04.590Z,63.41
2018-08-10T07:06:04.594Z,62.00
2018-08-10T07:07:04.604Z,61.35
2018-08-10T07:08:04.603Z,59.23
2018-08-10T07:09:04.606Z,56.77
2018-08-10T07:10:04.612Z,54.10
2018-08-10T07:11:04.620Z,53.19
2018-08-10T07:12:04.621Z,51.44
2018-08-10T07:13:04.653Z,51.30
2018-08-10T07:14:04.629Z,50.43
2018-08-10T07:15:04.634Z,50.48
2018-08-10T07:16:04.643Z,52.36
2018-08-10T07:17:04.649Z,53.13
2018-08-10T07:18:04.651Z,52.39
2018-08-10T07:19:04.656Z,51.44
2018-08-10T07:20:04.663Z,52.33
2018-08-10T07:21:04.668Z,53.88
2018-08-10T07:22:04.671Z,52.51
2018-08-10T07:23:04.678Z,50.43
2018-08-10T07:24:04.684Z,49.99
2018-08-10T07:25:04.695Z,50.07
2018-08-10T07:26:04.693Z,51.13
2018-08-10T07:27:04.756Z,51.23
2018-08-10T07:28:04.704Z,51.42
2018-08-10T07:29:04.714Z,51.81
2018-08-10T07:30:04.718Z,51.23
2018-08-10T07:31:04.726Z,50.31
2018-08-10T07:32:04.730Z,49.65
2018-08-10T07:33:04.742Z,49.49
2018-08-10T07:34:04.742Z,47.67
2018-08-10T07:35:04.748Z,46.60
2018-08-10T07:36:04.756Z,46.70
2018-08-10T07:37:04.766Z,46.51
2018-08-10T07:38:04.769Z,46.14
2018-08-10T07:39:04.778Z,45.48
2018-08-10T07:40:04.784Z,44.88
2018-08-10T07:41:04.796Z,45.48
2018-08-10T07:42:04.804Z,44.61
2018-08-10T07:43:04.805Z,44.32
2018-08-10T07:44:04.811Z,44.68
2018-08-10T07:45:04.824Z,46.17
2018-08-10T07:46:04.828Z,48.13
2018-08-10T07:47:04.837Z,50.21
2018-08-10T07:48:04.847Z,51.46
2018-08-10T07:49:04.854Z,50.74
2018-08-10T07:50:04.858Z,50.26
2018-08-10T07:51:04.869Z,49.73
2018-08-10T07:52:04.896Z,47.45
2018-08-10T07:53:04.885Z,46.31
2018-08-10T07:54:04.892Z,46.94
2018-08-10T07:55:04.901Z,46.12
2018-08-10T07:56:04.909Z,45.05
2018-08-10T07:57:04.917Z,45.64
2018-08-10T07:58:04.925Z,46.41
2018-08-10T07:59:04.960Z,45.90
2018-08-10T08:00:04.945Z,47.41
2018-08-10T08:01:04.952Z,47.50
2018-08-10T08:02:04.960Z,47.26
2018-08-10T08:03:04.995Z,49.00
2018-08-10T08:04:04.978Z,48.35
2018-08-10T08:05:04.984Z,47.60
2018-08-10T08:06:05.004Z,46.05
2018-08-10T08:07:05.053Z,45.71
2018-08-10T08:08:05.014Z,45.22
2018-08-10T08:09:05.019Z,44.57
2018-08-10T08:10:05.027Z,44.74
2018-08-10T08:11:05.038Z,44.18
2018-08-10T08:12:05.045Z,44.62
2018-08-10T08:13:05.056Z,45.61
2018-08-10T08:14:05.064Z,44.59
2018-08-10T08:15:05.070Z,44.18
2018-08-10T08:16:05.083Z,43.87
2018-08-10T08:17:05.091Z,44.72
2018-08-10T08:18:05.162Z,44.89
2018-08-10T08:19:05.116Z,46.39
2018-08-10T08:20:05.119Z,46.66
2018-08-10T08:21:05.129Z,47.43
2018-08-10T08:22:05.139Z,47.24
2018-08-10T08:23:05.147Z,47.41
2018-08-10T08:24:05.156Z,47.81
2018-08-10T08:25:05.167Z,47.91
2018-08-10T08:26:05.174Z,47.22
2018-08-10T08:27:05.234Z,46.25
2018-08-10T08:28:05.195Z,46.73
2018-08-10T08:29:05.203Z,47.80
2018-08-10T08:30:07.751Z,47.70
2018-08-10T08:31:05.221Z,47.70
2018-08-10T08:32:05.233Z,46.83
2018-08-10T08:33:05.241Z,46.54
2018-08-10T08:34:05.248Z,46.54
2018-08-10T08:35:05.312Z,46.42
2018-08-10T08:36:05.274Z,47.48
2018-08-10T08:37:05.281Z,47.48
2018-08-10T08:38:05.288Z,47.38
2018-08-10T08:39:05.298Z,46.73
2018-08-10T08:40:05.312Z,45.96
2018-08-10T08:41:05.410Z,45.76
2018-08-10T08:42:05.324Z,45.89
2018-08-10T08:43:05.336Z,45.89
2018-08-10T08:44:05.345Z,45.91
2018-08-10T08:45:05.354Z,44.73
2018-08-10T08:46:05.565Z,44.70
2018-08-10T08:47:05.375Z,45.76
2018-08-10T08:48:05.386Z,45.86
2018-08-10T08:49:05.394Z,46.25
2018-08-10T08:50:07.331Z,46.06
2018-08-10T08:51:05.416Z,45.96
2018-08-10T08:52:05.448Z,45.76
2018-08-10T08:53:05.440Z,46.73
2018-08-10T08:54:05.492Z,46.92
2018-08-10T08:55:05.460Z,46.44
2018-08-10T08:56:05.475Z,46.27
2018-08-10T08:57:05.493Z,44.53
2018-08-10T08:58:05.494Z,44.63
2018-08-10T08:59:05.506Z,45.89
2018-08-10T09:00:05.516Z,46.20
2018-08-10T09:01:05.528Z,45.81
2018-08-10T09:02:05.537Z,46.22
2018-08-10T09:03:05.553Z,45.42
2018-08-10T09:04:05.560Z,45.04
2018-08-10T09:05:05.584Z,46.20
2018-08-10T09:06:05.586Z,45.04
2018-08-10T09:07:05.599Z,45.14
2018-08-10T09:08:05.620Z,45.33
2018-08-10T09:09:05.620Z,44.63
2018-08-10T09:10:05.641Z,44.43
2018-08-10T09:11:05.642Z,45.00
2018-08-10T09:12:07.273Z,45.57
2018-08-10T09:13:05.666Z,45.98
2018-08-10T09:14:05.677Z,45.50
2018-08-10T09:15:05.698Z,45.62
2018-08-10T09:16:05.701Z,45.14
2018-08-10T09:17:05.774Z,44.94
2018-08-10T09:18:05.721Z,44.48
2018-08-10T09:19:05.733Z,44.19
2018-08-10T09:20:05.751Z,44.67
2018-08-10T09:21:05.757Z,44.98
2018-08-10T09:22:05.769Z,44.19
2018-08-10T09:23:05.779Z,43.80
2018-08-10T09:24:05.789Z,42.91
2018-08-10T09:25:05.802Z,43.59
2018-08-10T09:26:05.820Z,44.48
2018-08-10T09:27:05.903Z,44.38
2018-08-10T09:28:05.861Z,44.36
2018-08-10T09:29:05.841Z,44.38
2018-08-10T09:30:05.852Z,44.19
2018-08-10T09:31:05.862Z,44.48
2018-08-10T09:32:05.872Z,44.89
2018-08-10T09:33:05.900Z,43.37
2018-08-10T09:34:05.887Z,41.72
2018-08-10T09:35:05.902Z,41.52
2018-08-10T09:36:05.911Z,42.28
2018-08-10T09:37:05.921Z,42.96
2018-08-10T09:38:05.926Z,43.34
2018-08-10T09:39:05.935Z,43.63
2018-08-10T09:40:05.942Z,43.44
2018-08-10T09:41:05.953Z,43.24
2018-08-10T09:42:06.023Z,42.76
2018-08-10T09:43:05.971Z,43.44
2018-08-10T09:44:05.982Z,43.34
2018-08-10T09:45:05.996Z,43.34
2018-08-10T09:46:05.994Z,41.89
2018-08-10T09:47:06.007Z,41.89
2018-08-10T09:48:07.785Z,41.89
2018-08-10T09:49:06.017Z,42.08
2018-08-10T09:50:06.024Z,42.47
2018-08-10T09:51:06.032Z,42.76
2018-08-10T09:52:06.042Z,42.96
2018-08-10T09:53:06.051Z,43.44
2018-08-10T09:54:06.051Z,43.17
2018-08-10T09:55:06.059Z,41.62
2018-08-10T09:56:06.066Z,41.74
2018-08-10T09:57:06.074Z,39.69
2018-08-10T09:58:06.081Z,39.49
2018-08-10T09:59:06.085Z,40.17
2018-08-10T10:00:06.094Z,40.26
2018-08-10T10:01:06.101Z,40.46
2018-08-10T10:02:06.105Z,40.19
2018-08-10T10:03:06.134Z,40.09
2018-08-10T10:04:06.121Z,40.11
2018-08-10T10:05:08.780Z,40.21
2018-08-10T10:06:06.132Z,39.43
2018-08-10T10:07:06.139Z,39.45
2018-08-10T10:08:06.145Z,39.53
2018-08-10T10:09:06.193Z,38.95
2018-08-10T10:10:06.162Z,39.14
2018-08-10T10:11:06.166Z,39.14
2018-08-10T10:12:06.172Z,39.43
2018-08-10T10:13:06.183Z,38.76
2018-08-10T10:14:06.182Z,39.29
2018-08-10T10:15:06.192Z,39.49
2018-08-10T10:16:06.202Z,40.44
2018-08-10T10:17:06.207Z,41.02
2018-08-10T10:18:06.210Z,41.14
2018-08-10T10:19:06.217Z,41.24
2018-08-10T10:20:06.224Z,40.46
2018-08-10T10:21:07.819Z,40.09
2018-08-10T10:22:06.243Z,40.00
2018-08-10T10:23:06.243Z,39.80
2018-08-10T10:24:06.250Z,39.78
2018-08-10T10:25:06.255Z,40.07
2018-08-10T10:26:06.261Z,40.25
2018-08-10T10:27:08.840Z,39.95
2018-08-10T10:28:06.274Z,39.95
2018-08-10T10:29:06.283Z,40.32
2018-08-10T10:30:06.286Z,40.23
2018-08-10T10:31:06.291Z,41.11
2018-08-10T10:32:06.299Z,40.15
2018-08-10T10:33:06.306Z,40.17
2018-08-10T10:34:06.311Z,39.41
2018-08-10T10:35:06.316Z,39.32
2018-08-10T10:36:06.323Z,39.22
2018-08-10T10:37:06.330Z,39.32
2018-08-10T10:38:06.333Z,39.24
2018-08-10T10:39:06.340Z,38.54
2018-08-10T10:40:09.291Z,38.85
2018-08-10T10:41:06.353Z,38.56
2018-08-10T10:42:06.358Z,38.73
2018-08-10T10:43:06.366Z,38.83
2018-08-10T10:44:06.371Z,39.51
2018-08-10T10:45:06.377Z,39.41
2018-08-10T10:46:06.397Z,39.62
2018-08-10T10:47:06.387Z,39.04
2018-08-10T10:48:06.393Z,37.88
2018-08-10T10:49:06.399Z,37.88
2018-08-10T10:50:06.411Z,38.54
2018-08-10T10:51:06.413Z,39.04
2018-08-10T10:52:06.429Z,38.87
2018-08-10T10:53:06.427Z,38.48
2018-08-10T10:54:06.435Z,37.61
2018-08-10T10:55:06.442Z,37.96
2018-08-10T10:56:06.448Z,38.64
2018-08-10T10:57:06.458Z,38.76
2018-08-10T10:58:06.456Z,38.56
2018-08-10T10:59:06.462Z,37.88
2018-08-10T11:00:06.467Z,38.09
2018-08-10T11:01:06.476Z,38.68
2018-08-10T11:02:06.480Z,37.71
2018-08-10T11:03:06.484Z,37.61
2018-08-10T11:04:06.496Z,38.00
2018-08-10T11:05:06.498Z,37.61
2018-08-10T11:06:06.508Z,37.61
2018-08-10T11:07:06.509Z,38.70
2018-08-10T11:08:06.518Z,38.21
2018-08-10T11:09:06.523Z,37.34
2018-08-10T11:10:06.529Z,37.05
2018-08-10T11:11:06.535Z,37.16
2018-08-10T11:12:06.542Z,37.15
2018-08-10T11:13:06.548Z,38.02
2018-08-10T11:14:06.554Z,37.73
2018-08-10T11:15:06.559Z,37.73
2018-08-10T11:16:06.571Z,37.73
2018-08-10T11:17:06.574Z,37.03
2018-08-10T11:18:06.605Z,36.90
2018-08-10T11:19:06.589Z,36.99
2018-08-10T11:20:06.592Z,37.94
2018-08-10T11:21:06.598Z,38.91
2018-08-10T11:22:06.605Z,38.93
2018-08-10T11:23:06.610Z,38.54
2018-08-10T11:24:06.633Z,38.25
2018-08-10T11:25:06.638Z,38.46
2018-08-10T11:26:06.701Z,37.90
2018-08-10T11:27:06.636Z,37.63
2018-08-10T11:28:06.643Z,37.53
2018-08-10T11:29:06.649Z,37.26
2018-08-10T11:30:06.696Z,36.68
2018-08-10T11:31:06.661Z,36.69
2018-08-10T11:32:06.742Z,35.90
2018-08-10T11:33:06.676Z,35.98
2018-08-10T11:34:06.680Z,36.38
2018-08-10T11:35:06.685Z,36.18
2018-08-10T11:36:06.692Z,37.08
2018-08-10T11:37:06.702Z,36.99
2018-08-10T11:38:06.712Z,36.77
2018-08-10T11:39:06.709Z,37.15
2018-08-10T11:40:06.718Z,37.81
2018-08-10T11:41:06.728Z,38.29
2018-08-10T11:42:06.731Z,38.95
2018-08-10T11:43:06.736Z,39.12
2018-08-10T11:44:06.742Z,39.62
2018-08-10T11:45:06.782Z,39.70
2018-08-10T11:46:06.754Z,39.43
2018-08-10T11:47:06.767Z,38.76
2018-08-10T11:48:09.310Z,38.95
2018-08-10T11:49:06.774Z,39.55
2018-08-10T11:50:06.810Z,39.43
2018-08-10T11:51:06.787Z,38.66
2018-08-10T11:52:06.796Z,39.41
2018-08-10T11:53:06.801Z,39.69
2018-08-10T11:54:06.806Z,39.67
2018-08-10T11:55:06.813Z,39.76
2018-08-10T11:56:06.821Z,40.05
2018-08-10T11:57:06.828Z,40.05
2018-08-10T11:58:06.833Z,40.05
2018-08-10T11:59:06.841Z,39.86
2018-08-10T12:00:06.932Z,40.05
2018-08-10T12:01:06.850Z,40.23
2018-08-10T12:02:06.859Z,40.23
2018-08-10T12:03:06.862Z,40.32
2018-08-10T12:04:06.868Z,40.32
2018-08-10T12:05:06.879Z,39.74
2018-08-10T12:06:06.894Z,39.18
2018-08-10T12:07:06.886Z,39.69
2018-08-10T12:08:06.901Z,39.03
2018-08-10T12:09:06.899Z,38.46
2018-08-10T12:10:06.904Z,37.92
2018-08-10T12:11:06.910Z,36.66
2018-08-10T12:12:06.920Z,35.32
2018-08-10T12:13:06.923Z,34.64
2018-08-10T12:14:06.927Z,34.54
2018-08-10T12:15:06.935Z,35.01
2018-08-10T12:16:06.943Z,34.99
2018-08-10T12:17:06.950Z,35.86
2018-08-10T12:18:06.954Z,36.25
2018-08-10T12:19:07.099Z,36.16
2018-08-10T12:20:06.964Z,36.24
2018-08-10T12:21:06.970Z,36.24
2018-08-10T12:22:06.979Z,37.09
2018-08-10T12:23:06.985Z,37.73
2018-08-10T12:24:06.990Z,38.41
2018-08-10T12:25:06.995Z,38.50
2018-08-10T12:26:07.001Z,38.60
2018-08-10T12:27:07.004Z,38.62
2018-08-10T12:28:07.013Z,37.77
2018-08-10T12:29:07.020Z,37.21
2018-08-10T12:30:07.031Z,36.82
2018-08-10T12:31:07.031Z,35.75
2018-08-10T12:32:07.037Z,35.94
2018-08-10T12:33:07.043Z,35.86
2018-08-10T12:34:07.049Z,36.35
2018-08-10T12:35:07.056Z,36.80
2018-08-10T12:36:07.081Z,36.90
2018-08-10T12:37:07.065Z,37.77
2018-08-10T12:38:07.077Z,37.67
2018-08-10T12:39:07.079Z,37.38
2018-08-10T12:40:07.084Z,36.99
2018-08-10T12:41:07.091Z,37.48
2018-08-10T12:42:07.095Z,36.62
2018-08-10T12:43:07.106Z,36.62
2018-08-10T12:44:07.107Z,37.21
2018-08-10T12:45:07.116Z,37.11
2018-08-10T12:46:07.128Z,37.11
2018-08-10T12:47:08.837Z,37.77
2018-08-10T12:48:08.835Z,37.87
2018-08-10T12:49:07.137Z,38.54
2018-08-10T12:50:07.190Z,37.09
2018-08-10T12:51:07.152Z,37.59
2018-08-10T12:52:08.836Z,37.41